Time;durP1;ratioP1;P1;durP2;ratioP2;P2;SDS_P1;SDS_P2;PMS_P1;PMS_P2;Temp;Humidity;BMP_temperature;BMP_pressure;BME280_temperature;BME280_humidity;BME280_pressure;Samples;Min_cycle;Max_cycle;Signal;HPM_P1;HPM_P2
2023/07/21 00:01:43;;;;;;;2.90;2.70;;;;;;;16.48;100.00;96544.78;5077376;28;20292;-67
2023/07/21 00:04:11;;;;;;;3.70;2.83;;;;;;;16.44;100.00;96540.13;5071281;28;20294;-69
2023/07/21 00:06:38;;;;;;;3.07;2.87;;;;;;;16.37;100.00;96540.25;5079040;28;20319;-66
2023/07/21 00:09:07;;;;;;;3.33;3.03;;;;;;;16.39;100.00;96535.47;5029356;28;20207;-66
2023/07/21 00:11:35;;;;;;;3.07;2.97;;;;;;;16.14;100.00;96522.41;5079703;28;20226;-67
2023/07/21 00:14:03;;;;;;;3.20;3.00;;;;;;;16.30;100.00;96544.94;5074718;28;20203;-67
2023/07/21 00:16:32;;;;;;;2.80;2.60;;;;;;;16.27;100.00;96542.72;5072622;28;20654;-67
2023/07/21 00:19:00;;;;;;;2.40;2.20;;;;;;;16.30;100.00;96539.59;5072905;28;20555;-67
2023/07/21 00:21:29;;;;;;;2.73;2.57;;;;;;;16.24;100.00;96529.84;5075189;28;20210;-69
2023/07/21 00:23:57;;;;;;;3.07;2.87;;;;;;;16.22;100.00;96530.06;4960010;28;20602;-65
2023/07/21 00:26:25;;;;;;;3.57;3.27;;;;;;;16.16;100.00;96531.00;5078993;28;20241;-66
2023/07/21 00:28:53;;;;;;;2.93;2.80;;;;;;;16.08;100.00;96523.38;5067882;28;20229;-69
2023/07/21 00:31:21;;;;;;;3.00;2.83;;;;;;;16.09;100.00;96523.13;5075722;28;20279;-67
2023/07/21 00:33:50;;;;;;;2.97;2.77;;;;;;;16.05;100.00;96519.28;5075348;28;20702;-67
2023/07/21 00:36:17;;;;;;;2.50;2.30;;;;;;;15.95;100.00;96516.41;5066176;28;20268;-67
2023/07/21 00:38:46;;;;;;;2.50;2.40;;;;;;;15.93;100.00;96505.16;5027041;28;20651;-67
2023/07/21 00:41:15;;;;;;;2.53;2.40;;;;;;;15.83;100.00;96501.19;5074825;28;20616;-66
2023/07/21 00:43:43;;;;;;;2.63;2.53;;;;;;;15.81;100.00;96503.28;5025347;28;20713;-69
2023/07/21 00:46:11;;;;;;;2.77;2.67;;;;;;;15.55;100.00;96470.69;5070488;28;20330;-67
2023/07/21 00:48:39;;;;;;;2.67;2.53;;;;;;;15.77;100.00;96502.13;5069705;28;20202;-67
2023/07/21 00:51:10;;;;;;;2.33;2.23;;;;;;;15.72;100.00;96491.31;5075064;28;20297;-66
2023/07/21 00:53:37;;;;;;;2.77;2.57;;;;;;;15.68;100.00;96484.81;5070004;28;20291;-66
2023/07/21 00:56:05;;;;;;;2.90;2.70;;;;;;;15.72;100.00;96483.31;5074685;28;20199;-70
2023/07/21 00:58:33;;;;;;;4.17;3.00;;;;;;;15.72;100.00;96480.63;4957015;28;20218;-66
2023/07/21 01:01:01;;;;;;;3.67;2.50;;;;;;;15.72;100.00;96478.78;5076294;28;20640;-68
2023/07/21 01:03:30;;;;;;;2.90;2.70;;;;;;;15.72;100.00;96476.13;5071635;28;20899;-66
2023/07/21 01:05:58;;;;;;;2.87;2.70;;;;;;;15.71;100.00;96473.66;5067032;28;20751;-68
2023/07/21 01:08:27;;;;;;;3.00;2.90;;;;;;;15.72;100.00;96478.78;5023234;28;20236;-70
2023/07/21 01:10:55;;;;;;;2.90;2.80;;;;;;;15.63;100.00;96478.31;5077259;28;20230;-67
2023/07/21 01:13:23;;;;;;;2.70;2.60;;;;;;;15.54;100.00;96481.59;5060097;28;20205;-67
2023/07/21 01:15:52;;;;;;;2.67;2.57;;;;;;;15.54;100.00;96474.41;5074401;28;20286;-67
2023/07/21 01:18:21;;;;;;;3.20;3.00;;;;;;;15.54;100.00;96481.59;5069942;28;20198;-66
2023/07/21 01:20:49;;;;;;;2.73;2.53;;;;;;;15.47;100.00;96473.72;5073989;28;20639;-66
2023/07/21 01:23:22;;;;;;;2.80;2.60;;;;;;;15.42;100.00;96465.59;5075114;28;20255;-66
2023/07/21 01:25:52;;;;;;;3.53;3.30;;;;;;;15.30;100.00;96468.25;5075563;28;20318;-66
2023/07/21 01:28:20;;;;;;;2.73;2.63;;;;;;;15.25;100.00;96468.94;4964957;28;20578;-67
2023/07/21 01:30:49;;;;;;;3.13;2.93;;;;;;;15.23;100.00;96467.56;5068877;28;20641;-69
2023/07/21 01:33:18;;;;;;;3.20;3.10;;;;;;;15.19;100.00;96467.19;5067306;28;20210;-68
2023/07/21 01:35:48;;;;;;;3.60;3.37;;;;;;;15.15;100.00;96453.53;5073357;28;20249;-68
2023/07/21 01:38:16;;;;;;;3.17;2.97;;;;;;;15.15;100.00;96464.19;5057539;28;20412;-66
2023/07/21 01:40:44;;;;;;;2.97;2.87;;;;;;;15.13;100.00;96466.25;5075843;28;20666;-66
2023/07/21 01:43:14;;;;;;;3.03;2.93;;;;;;;15.12;100.00;96469.16;5024454;28;20969;-65
2023/07/21 01:45:43;;;;;;;2.90;2.80;;;;;;;15.07;100.00;96459.19;5069192;28;20215;-68
2023/07/21 01:48:10;;;;;;;3.87;3.67;;;;;;;15.08;100.00;96458.13;5073224;28;20457;-66
2023/07/21 01:50:41;;;;;;;3.20;3.00;;;;;;;15.16;100.00;96463.16;5076085;28;20206;-69
2023/07/21 01:53:13;;;;;;;3.67;3.37;;;;;;;15.07;100.00;96453.84;5072138;28;20198;-66
2023/07/21 01:55:44;;;;;;;3.63;3.33;;;;;;;15.11;100.00;96462.22;5063661;28;20199;-66
2023/07/21 01:58:13;;;;;;;3.53;3.23;;;;;;;15.16;100.00;96459.66;4955535;28;21806;-66
2023/07/21 02:00:43;;;;;;;3.43;3.33;;;;;;;15.07;100.00;96456.50;5082775;28;20855;-66
2023/07/21 02:03:18;;;;;;;3.37;3.17;;;;;;;15.10;100.00;96452.56;5071973;28;20194;-68
2023/07/21 02:05:47;;;;;;;3.07;2.87;;;;;;;15.13;100.00;96454.78;5072933;28;20225;-67
2023/07/21 02:08:15;;;;;;;3.43;2.93;;;;;;;15.14;100.00;96451.06;5072649;28;20228;-67
2023/07/21 02:10:43;;;;;;;2.93;2.73;;;;;;;15.14;100.00;96445.72;5079398;28;20666;-67
2023/07/21 02:13:11;;;;;;;3.80;3.60;;;;;;;15.09;100.00;96462.41;5077241;28;20829;-66
2023/07/21 02:15:40;;;;;;;3.77;3.57;;;;;;;15.04;100.00;96454.31;5078516;28;20201;-66
2023/07/21 02:18:08;;;;;;;3.10;3.00;;;;;;;15.00;100.00;96455.81;5029343;28;21007;-66
2023/07/21 02:20:36;;;;;;;3.10;2.90;;;;;;;14.88;100.00;96439.78;5069651;28;20831;-65
2023/07/21 02:23:03;;;;;;;3.20;3.00;;;;;;;14.94;100.00;96449.53;5075464;28;20230;-66
2023/07/21 02:25:31;;;;;;;3.20;3.00;;;;;;;14.89;100.00;96454.75;5078993;28;20305;-69
2023/07/21 02:27:59;;;;;;;4.73;3.50;;;;;;;14.82;100.00;96454.03;4978967;28;20628;-69
2023/07/21 02:30:27;;;;;;;3.03;2.83;;;;;;;14.75;100.00;96454.97;5063233;28;20210;-68
2023/07/21 02:32:56;;;;;;;3.50;3.30;;;;;;;14.59;100.00;96419.06;5075274;28;20880;-69
2023/07/21 02:35:24;;;;;;;3.27;3.07;;;;;;;14.72;100.00;96447.41;5075947;28;20199;-67
2023/07/21 02:37:51;;;;;;;3.60;3.40;;;;;;;14.70;100.00;96444.16;4995148;28;20333;-66
2023/07/21 02:40:19;;;;;;;3.83;3.53;;;;;;;14.67;100.00;96436.59;5075915;28;20455;-66
2023/07/21 02:42:47;;;;;;;3.13;3.03;;;;;;;14.63;100.00;96435.44;5076117;28;20714;-69
2023/07/21 02:45:14;;;;;;;3.33;3.10;;;;;;;14.56;100.00;96432.03;5075894;28;20226;-64
2023/07/21 02:47:42;;;;;;;3.37;3.17;;;;;;;14.54;100.00;96426.13;5074237;28;21552;-67
2023/07/21 02:50:11;;;;;;;4.50;3.43;;;;;;;14.48;100.00;96423.31;5073954;28;20203;-67
2023/07/21 02:52:40;;;;;;;3.10;2.90;;;;;;;14.43;100.00;96420.53;5037557;28;20358;-66
2023/07/21 02:55:09;;;;;;;3.47;3.27;;;;;;;14.44;100.00;96426.69;5074812;28;20289;-67
2023/07/21 02:57:36;;;;;;;3.23;3.03;;;;;;;14.39;100.00;96423.88;5075485;28;20237;-68
2023/07/21 03:00:05;;;;;;;8.53;3.67;;;;;;;14.40;100.00;96428.19;5075101;28;20287;-68
2023/07/21 03:02:34;;;;;;;3.30;3.10;;;;;;;14.35;100.00;96428.84;5001480;28;20383;-66
2023/07/21 03:05:04;;;;;;;6.73;3.37;;;;;;;14.41;100.00;96427.94;5045256;28;20207;-65
2023/07/21 03:07:33;;;;;;;3.67;3.40;;;;;;;14.43;100.00;96425.06;5037936;28;20226;-67
2023/07/21 03:10:01;;;;;;;3.10;3.00;;;;;;;14.41;100.00;96432.47;5063566;28;20210;-66
2023/07/21 03:12:29;;;;;;;3.43;3.23;;;;;;;14.42;100.00;96428.78;5066935;28;21058;-68
2023/07/21 03:14:56;;;;;;;5.37;3.70;;;;;;;14.42;100.00;96424.25;5077972;28;20286;-65
2023/07/21 03:17:24;;;;;;;3.43;3.23;;;;;;;14.36;100.00;96411.81;5044218;28;20986;-67
2023/07/21 03:19:52;;;;;;;2.97;2.87;;;;;;;14.46;100.00;96424.59;5051739;28;20231;-67
2023/07/21 03:22:19;;;;;;;3.60;3.40;;;;;;;14.42;100.00;96423.44;5077116;28;20206;-68
2023/07/21 03:24:48;;;;;;;3.03;2.83;;;;;;;14.41;100.00;96422.63;5076475;28;20229;-65
2023/07/21 03:27:16;;;;;;;4.87;3.40;;;;;;;14.43;100.00;96425.06;5070043;28;20222;-68
2023/07/21 03:29:46;;;;;;;3.93;3.63;;;;;;;14.41;100.00;96419.16;5072019;28;20965;-66
2023/07/21 03:32:14;;;;;;;3.20;3.00;;;;;;;14.43;100.00;96411.75;5044682;28;20210;-68
2023/07/21 03:34:42;;;;;;;4.03;3.73;;;;;;;14.24;100.00;96400.34;4933594;28;20885;-67
2023/07/21 03:37:10;;;;;;;3.73;3.43;;;;;;;14.37;100.00;96424.13;5060454;28;20251;-64
2023/07/21 03:39:38;;;;;;;3.30;3.00;;;;;;;14.35;100.00;96420.88;5051730;28;20295;-69
2023/07/21 03:42:07;;;;;;;3.20;3.10;;;;;;;14.37;100.00;96420.63;5057197;28;20198;-68
2023/07/21 03:44:35;;;;;;;3.90;3.70;;;;;;;14.30;100.00;96415.41;5066733;28;20202;-67
2023/07/21 03:47:02;;;;;;;3.60;3.30;;;;;;;14.31;100.00;96414.38;5075011;28;20214;-64
2023/07/21 03:49:30;;;;;;;3.70;3.40;;;;;;;14.30;100.00;96416.19;5073854;28;20369;-67
2023/07/21 03:51:58;;;;;;;3.60;3.40;;;;;;;14.28;100.00;96415.63;5078548;28;20207;-64
2023/07/21 03:54:25;;;;;;;3.77;3.40;;;;;;;14.24;100.00;96411.78;5076194;28;20676;-68
2023/07/21 03:56:53;;;;;;;4.20;3.90;;;;;;;14.27;100.00;96410.53;5074610;28;20317;-64
2023/07/21 03:59:22;;;;;;;4.03;3.73;;;;;;;14.24;100.00;96414.44;5038178;28;20301;-67
2023/07/21 04:01:50;;;;;;;3.63;3.43;;;;;;;14.23;100.00;96409.38;5054046;28;20207;-66
2023/07/21 04:04:19;;;;;;;3.53;3.33;;;;;;;14.17;100.00;96406.53;5030098;28;20853;-66
2023/07/21 04:06:47;;;;;;;3.57;3.37;;;;;;;14.27;100.00;96411.34;5022526;28;20241;-64
2023/07/21 04:09:15;;;;;;;3.80;3.50;;;;;;;14.26;100.00;96408.91;5056941;28;20745;-66
2023/07/21 04:11:43;;;;;;;3.80;3.50;;;;;;;14.30;100.00;96410.88;5032113;28;20856;-69
2023/07/21 04:14:10;;;;;;;3.73;3.23;;;;;;;14.22;100.00;96391.75;5074168;28;20714;-67
2023/07/21 04:16:39;;;;;;;3.63;3.43;;;;;;;14.40;100.00;96414.88;5076449;28;20242;-67
2023/07/21 04:19:07;;;;;;;3.70;3.50;;;;;;;14.43;100.00;96407.22;5071087;28;20211;-67
2023/07/21 04:21:35;;;;;;;3.67;3.37;;;;;;;14.46;100.00;96401.41;5071472;28;20195;-65
2023/07/21 04:24:02;;;;;;;3.50;3.30;;;;;;;14.52;100.00;96406.88;5068651;28;20289;-64
2023/07/21 04:26:31;;;;;;;3.20;3.00;;;;;;;14.51;100.00;96406.09;5074194;28;20596;-66
2023/07/21 04:28:58;;;;;;;3.60;3.30;;;;;;;14.52;100.00;96402.38;5077770;28;20264;-67
2023/07/21 04:31:28;;;;;;;3.57;3.37;;;;;;;14.64;100.00;96406.91;5073597;28;20201;-64
2023/07/21 04:33:57;;;;;;;3.83;3.40;;;;;;;14.74;100.00;96421.34;5077601;28;20210;-66
2023/07/21 04:36:27;;;;;;;3.70;3.40;;;;;;;14.81;100.00;96423.09;4975567;28;20226;-64
2023/07/21 04:38:54;;;;;;;4.13;3.20;;;;;;;14.92;100.00;96419.59;5072313;28;20267;-63
2023/07/21 04:41:22;;;;;;;3.40;3.20;;;;;;;15.03;100.00;96424.16;5076764;28;20734;-66
2023/07/21 04:43:50;;;;;;;3.13;3.03;;;;;;;15.07;100.00;96421.81;5072566;28;20608;-64
2023/07/21 04:46:18;;;;;;;3.30;3.20;;;;;;;15.08;100.00;96426.13;5071967;28;21728;-65
2023/07/21 04:48:46;;;;;;;3.60;3.40;;;;;;;15.16;100.00;96427.63;5068633;28;20661;-64
2023/07/21 04:51:15;;;;;;;3.47;3.27;;;;;;;15.24;100.00;96424.63;5071625;28;20248;-67
2023/07/21 04:53:42;;;;;;;3.27;3.07;;;;;;;15.32;100.00;96418.91;5074033;28;20206;-65
2023/07/21 04:56:13;;;;;;;3.60;3.40;;;;;;;15.40;100.00;96423.09;5076231;28;20268;-64
2023/07/21 04:58:44;;;;;;;3.30;3.10;;;;;;;15.48;100.00;96425.41;5072943;28;20194;-67
2023/07/21 05:01:11;;;;;;;3.27;3.17;;;;;;;15.43;100.00;96427.19;5071908;28;20284;-66
2023/07/21 05:03:39;;;;;;;3.93;3.23;;;;;;;15.42;100.00;96426.34;5073463;28;20202;-65
2023/07/21 05:06:09;;;;;;;5.27;3.00;;;;;;;15.45;100.00;96420.53;5062354;28;20263;-66
2023/07/21 05:08:39;;;;;;;3.27;3.07;;;;;;;15.47;100.00;96418.44;5075645;28;20222;-66
2023/07/21 05:11:09;;;;;;;3.20;3.00;;;;;;;15.48;100.00;96420.06;4967216;28;20215;-65
2023/07/21 05:13:37;;;;;;;3.27;3.07;;;;;;;15.45;100.00;96422.41;5073765;28;20201;-64
2023/07/21 05:16:05;;;;;;;3.87;3.60;;;;;;;15.46;100.00;96424.03;5076703;28;20301;-65
2023/07/21 05:18:33;;;;;;;3.70;3.40;;;;;;;15.45;100.00;96419.75;5069691;28;20275;-67
2023/07/21 05:21:01;;;;;;;3.40;3.20;;;;;;;15.41;100.00;96416.72;5067132;28;20227;-65
2023/07/21 05:23:29;;;;;;;3.53;3.33;;;;;;;15.40;100.00;96411.63;5080992;28;20311;-65
2023/07/21 05:26:02;;;;;;;7.73;4.00;;;;;;;15.44;100.00;96410.13;5071215;28;20659;-64
2023/07/21 05:28:30;;;;;;;8.27;3.40;;;;;;;15.45;100.00;96414.41;5076146;28;20311;-65
2023/07/21 05:30:57;;;;;;;4.20;3.80;;;;;;;15.49;100.00;96418.22;5061842;28;20736;-65
2023/07/21 05:33:25;;;;;;;3.90;3.37;;;;;;;15.54;100.00;96421.00;5079223;28;20213;-67
2023/07/21 05:35:53;;;;;;;4.20;3.80;;;;;;;15.56;100.00;96418.09;5069574;28;20289;-65
2023/07/21 05:38:20;;;;;;;4.40;4.00;;;;;;;15.59;100.00;96414.97;5073743;28;20305;-64
2023/07/21 05:40:56;;;;;;;4.00;3.70;;;;;;;15.59;100.00;96415.75;5073637;28;20210;-64
2023/07/21 05:43:25;;;;;;;3.83;3.53;;;;;;;15.68;100.00;96415.41;5072216;28;20210;-64
2023/07/21 05:45:53;;;;;;;3.43;3.23;;;;;;;15.77;100.00;96406.78;4962247;28;20234;-67
2023/07/21 05:48:21;;;;;;;3.23;2.93;;;;;;;15.88;100.00;96417.69;5077904;28;20233;-65
2023/07/21 05:50:49;;;;;;;3.03;2.83;;;;;;;15.74;100.00;96393.91;5010883;28;20202;-67
2023/07/21 05:53:16;;;;;;;5.17;3.47;;;;;;;15.95;100.00;96418.41;5009799;28;20671;-65
2023/07/21 05:55:44;;;;;;;4.83;3.30;;;;;;;15.95;100.00;96413.06;5068133;28;20202;-64
2023/07/21 05:58:12;;;;;;;3.93;3.63;;;;;;;16.26;100.00;96407.47;5075154;28;20222;-66
2023/07/21 06:00:41;;;;;;;3.43;3.13;;;;;;;16.42;100.00;96393.31;5075116;28;20632;-65
2023/07/21 06:03:08;;;;;;;3.57;3.27;;;;;;;16.64;100.00;96397.97;5021218;28;20210;-65
2023/07/21 06:05:37;;;;;;;8.00;3.40;;;;;;;16.68;100.00;96392.97;5030354;28;20302;-65
2023/07/21 06:08:05;;;;;;;3.67;3.37;;;;;;;16.76;100.00;96395.22;5053215;28;20287;-66
2023/07/21 06:10:32;;;;;;;3.50;3.30;;;;;;;16.66;100.00;96379.81;5075153;28;20225;-67
2023/07/21 06:13:00;;;;;;;4.37;3.20;;;;;;;16.74;100.00;96387.44;5073477;28;20225;-65
2023/07/21 06:15:28;;;;;;;5.87;3.17;;;;;;;16.73;100.00;96390.38;5029817;28;20214;-65
2023/07/21 06:17:57;;;;;;;3.43;3.23;;;;;;;16.74;100.00;96387.44;5013693;28;20232;-64
2023/07/21 06:20:25;;;;;;;3.17;3.07;;;;;;;16.90;100.00;96390.38;5073072;28;20760;-66
2023/07/21 06:22:53;;;;;;;3.47;3.27;;;;;;;17.12;100.00;96387.78;5075551;28;20207;-64
2023/07/21 06:25:21;;;;;;;3.10;2.90;;;;;;;17.32;100.00;96389.09;5076955;28;20203;-67
2023/07/21 06:27:50;;;;;;;3.03;2.83;;;;;;;17.64;100.00;96388.44;5068486;28;20254;-64
2023/07/21 06:30:18;;;;;;;3.23;3.07;;;;;;;17.83;100.00;96385.47;5075547;28;20202;-66
2023/07/21 06:32:45;;;;;;;3.00;2.90;;;;;;;18.15;100.00;96376.72;5070650;28;20226;-65
2023/07/21 06:35:15;;;;;;;3.13;2.93;;;;;;;18.63;100.00;96374.22;5075840;28;20402;-67
2023/07/21 06:37:42;;;;;;;3.30;3.00;;;;;;;18.76;100.00;96386.41;5038529;28;20787;-66
2023/07/21 06:40:11;;;;;;;2.93;2.73;;;;;;;18.93;100.00;96381.69;5079260;28;20202;-69
2023/07/21 06:42:39;;;;;;;3.00;2.80;;;;;;;18.73;100.00;96376.19;5035796;28;20443;-68
2023/07/21 06:45:09;;;;;;;3.00;2.80;;;;;;;18.01;100.00;96371.75;5079811;28;20275;-67
2023/07/21 06:47:37;;;;;;;3.10;2.80;;;;;;;18.10;100.00;96373.97;5074838;28;20244;-66
2023/07/21 06:50:06;;;;;;;2.67;2.57;;;;;;;18.00;100.00;96369.31;5078335;28;20206;-65
2023/07/21 06:52:36;;;;;;;7.23;6.63;;;;;;;18.28;100.00;96360.25;4972554;28;20249;-67
2023/07/21 06:55:04;;;;;;;8.03;7.40;;;;;;;18.38;100.00;96354.16;5076483;28;20207;-68
2023/07/21 06:57:31;;;;;;;3.03;2.83;;;;;;;18.39;100.00;96354.97;5074720;28;20612;-70
2023/07/21 06:59:59;;;;;;;2.50;2.30;;;;;;;18.56;100.00;96353.00;5075187;28;20648;-70
2023/07/21 07:02:27;;;;;;;2.70;2.50;;;;;;;18.87;100.00;96350.50;5075207;28;20294;-67
2023/07/21 07:04:54;;;;;;;5.53;2.70;;;;;;;19.07;100.00;96349.06;5075169;28;20237;-67
2023/07/21 07:07:22;;;;;;;3.10;2.90;;;;;;;19.51;100.00;96350.66;5075277;28;20725;-67
2023/07/21 07:09:51;;;;;;;3.17;2.50;;;;;;;19.64;99.35;96342.09;5077480;28;20695;-67
2023/07/21 07:12:18;;;;;;;5.00;2.60;;;;;;;19.95;97.32;96346.78;5030710;28;20309;-69
2023/07/21 07:14:46;;;;;;;2.30;2.20;;;;;;;20.14;92.82;96340.94;5076623;28;20233;-69
2023/07/21 07:17:14;;;;;;;2.90;2.70;;;;;;;20.30;89.40;96341.75;5036210;28;20240;-68
2023/07/21 07:19:41;;;;;;;2.80;2.57;;;;;;;20.35;87.56;96349.84;5076524;28;20638;-67
2023/07/21 07:22:09;;;;;;;2.57;2.47;;;;;;;20.50;86.02;96352.53;5074408;28;20217;-69
2023/07/21 07:24:37;;;;;;;3.53;2.40;;;;;;;20.91;86.72;96345.53;5076932;28;20820;-65
2023/07/21 07:27:06;;;;;;;4.53;2.47;;;;;;;20.45;86.01;96347.16;4965856;28;20235;-64
2023/07/21 07:29:35;;;;;;;2.60;2.50;;;;;;;20.10;88.31;96346.03;5076463;28;20338;-65
2023/07/21 07:32:02;;;;;;;2.87;2.67;;;;;;;19.78;92.07;96349.66;5072382;28;20233;-67
2023/07/21 07:34:30;;;;;;;2.80;2.63;;;;;;;20.08;90.98;96340.09;5077259;28;20205;-65
2023/07/21 07:36:58;;;;;;;3.00;2.80;;;;;;;20.32;89.76;96342.31;5070815;28;20334;-68
2023/07/21 07:39:26;;;;;;;5.50;5.10;;;;;;;20.64;88.36;96341.22;5077648;28;20202;-64
2023/07/21 07:41:53;;;;;;;2.90;2.70;;;;;;;20.70;87.90;96332.09;5076912;28;20283;-66
2023/07/21 07:44:23;;;;;;;3.23;3.00;;;;;;;20.87;86.67;96336.41;5073025;28;20656;-65
2023/07/21 07:46:50;;;;;;;2.60;2.40;;;;;;;21.02;84.39;96330.19;5026719;28;20318;-65
2023/07/21 07:49:18;;;;;;;2.80;2.60;;;;;;;20.96;84.96;96332.06;5076793;28;20237;-67
2023/07/21 07:51:45;;;;;;;3.20;3.00;;;;;;;20.98;88.13;96332.59;5067347;28;20335;-65
2023/07/21 07:54:14;;;;;;;2.80;2.60;;;;;;;21.12;82.11;96338.22;5071903;28;20297;-67
2023/07/21 07:56:42;;;;;;;3.13;3.00;;;;;;;21.32;87.87;96331.97;4965985;28;20227;-65
2023/07/21 07:59:09;;;;;;;3.67;3.47;;;;;;;21.50;82.12;96329.78;5075917;28;20221;-66
2023/07/21 08:01:38;;;;;;;2.80;2.60;;;;;;;22.04;80.25;96339.00;5074093;28;20677;-64
2023/07/21 08:04:06;;;;;;;5.27;2.87;;;;;;;22.72;77.93;96331.25;5073979;28;20198;-65
2023/07/21 08:06:34;;;;;;;3.23;3.03;;;;;;;22.86;72.83;96333.28;5073795;28;20627;-66
2023/07/21 08:09:02;;;;;;;2.77;2.67;;;;;;;23.13;69.42;96336.25;5077127;28;20300;-67
2023/07/21 08:11:31;;;;;;;3.07;2.87;;;;;;;22.98;67.94;96337.19;5075056;28;20206;-67
2023/07/21 08:13:59;;;;;;;3.43;3.00;;;;;;;22.86;71.29;96308.97;5068256;28;21809;-64
2023/07/21 08:16:27;;;;;;;2.70;2.50;;;;;;;22.95;70.09;96323.47;5069395;28;20241;-66
2023/07/21 08:18:56;;;;;;;2.90;2.70;;;;;;;22.67;70.45;96323.19;5075609;28;20255;-68
2023/07/21 08:21:27;;;;;;;6.27;2.90;;;;;;;22.50;74.05;96321.69;5029904;28;20301;-66
2023/07/21 08:23:55;;;;;;;3.03;2.83;;;;;;;22.29;74.59;96322.91;5075154;28;20210;-69
2023/07/21 08:26:23;;;;;;;4.13;3.20;;;;;;;22.40;80.72;96302.84;4963188;28;20234;-66
2023/07/21 08:28:52;;;;;;;3.97;3.20;;;;;;;22.68;83.91;96320.19;5078464;28;20310;-66
2023/07/21 08:31:20;;;;;;;3.90;3.60;;;;;;;22.99;79.92;96319.13;5065691;28;20201;-65
2023/07/21 08:33:51;;;;;;;3.57;3.27;;;;;;;22.97;77.10;96322.09;5078984;28;20198;-66
2023/07/21 08:36:20;;;;;;;3.50;2.97;;;;;;;23.27;76.29;96319.38;5071012;28;20207;-68
2023/07/21 08:38:47;;;;;;;4.57;3.07;;;;;;;23.52;71.82;96326.41;5076293;28;20194;-67
2023/07/21 08:41:18;;;;;;;4.03;3.13;;;;;;;23.21;73.81;96326.72;5075584;28;20251;-66
2023/07/21 08:43:47;;;;;;;3.20;2.97;;;;;;;23.56;73.05;96324.72;5077971;28;20210;-67
2023/07/21 08:46:15;;;;;;;8.73;3.70;;;;;;;24.20;69.30;96334.47;5072568;28;20744;-63
2023/07/21 08:48:43;;;;;;;3.33;2.77;;;;;;;24.39;69.37;96330.91;5065013;28;20253;-65
2023/07/21 08:51:11;;;;;;;3.43;3.17;;;;;;;24.64;67.97;96337.03;5020704;28;20289;-65
2023/07/21 08:53:40;;;;;;;3.87;3.20;;;;;;;24.89;67.42;96335.81;5076289;28;20210;-65
2023/07/21 08:56:09;;;;;;;3.43;3.23;;;;;;;24.90;64.31;96339.34;5069565;28;20645;-66
2023/07/21 08:58:37;;;;;;;3.90;3.07;;;;;;;24.93;64.58;96344.16;5076456;28;20406;-65
2023/07/21 09:01:07;;;;;;;3.67;3.13;;;;;;;24.95;65.35;96344.69;4969300;28;20910;-65
2023/07/21 09:03:34;;;;;;;2.97;2.77;;;;;;;24.89;65.72;96345.88;5077703;28;20209;-66
2023/07/21 09:06:02;;;;;;;4.63;3.33;;;;;;;24.56;64.79;96344.75;5070042;28;20416;-64
2023/07/21 09:08:33;;;;;;;3.50;3.20;;;;;;;24.65;64.70;96331.34;5079027;28;20239;-65
2023/07/21 09:11:03;;;;;;;6.50;3.23;;;;;;;24.01;66.08;96331.75;5070207;28;20191;-71
2023/07/21 09:13:32;;;;;;;3.10;2.90;;;;;;;24.32;69.69;96346.72;5075393;28;20232;-65
2023/07/21 09:16:01;;;;;;;3.17;2.87;;;;;;;23.89;69.36;96348.38;5072794;28;20198;-67
2023/07/21 09:18:30;;;;;;;4.03;3.73;;;;;;;23.52;70.13;96353.44;5078930;28;20210;-65
2023/07/21 09:20:58;;;;;;;3.17;2.97;;;;;;;23.02;71.05;96340.16;5066682;28;20210;-66
2023/07/21 09:23:29;;;;;;;3.37;3.07;;;;;;;22.86;71.42;96357.56;5075941;28;20281;-65
2023/07/21 09:25:58;;;;;;;3.10;2.80;;;;;;;22.47;73.18;96357.34;5040166;28;20202;-67
2023/07/21 09:28:39;;;;;;;3.93;3.63;;;;;;;22.40;75.35;96351.44;5078857;28;20279;-70
2023/07/21 09:31:08;;;;;;;6.00;3.47;;;;;;;22.58;74.36;96349.97;5074468;28;20400;-66
2023/07/21 09:33:41;;;;;;;3.50;3.10;;;;;;;22.72;73.70;96346.63;5073805;28;20271;-67
2023/07/21 09:36:10;;;;;;;3.60;3.30;;;;;;;23.03;70.10;96335.53;4962672;28;20205;-66
2023/07/21 09:38:39;;;;;;;10.13;6.97;;;;;;;23.29;70.18;96338.00;5078339;28;20258;-69
2023/07/21 09:41:09;;;;;;;4.03;3.63;;;;;;;23.54;70.43;96332.31;5073647;28;20195;-66
2023/07/21 09:43:36;;;;;;;3.17;2.90;;;;;;;23.79;69.85;96333.06;5073914;28;20202;-68
2023/07/21 09:46:07;;;;;;;3.60;3.20;;;;;;;23.70;69.87;96324.00;5068919;28;20281;-66
2023/07/21 09:48:37;;;;;;;3.33;3.10;;;;;;;23.64;71.37;96334.06;5074040;28;20206;-68
2023/07/21 09:51:07;;;;;;;4.30;3.03;;;;;;;23.44;69.88;96334.34;5066651;28;20254;-67
2023/07/21 09:53:38;;;;;;;3.47;3.20;;;;;;;23.29;71.45;96333.41;5074461;28;20262;-65
2023/07/21 09:56:07;;;;;;;3.20;3.00;;;;;;;22.86;74.27;96322.47;5025583;28;20713;-66
2023/07/21 09:58:36;;;;;;;3.90;3.00;;;;;;;22.97;73.50;96332.09;5076144;28;20214;-67
2023/07/21 10:01:06;;;;;;;3.27;3.00;;;;;;;23.24;76.96;96326.16;5070445;28;20202;-65
2023/07/21 10:03:35;;;;;;;3.20;2.90;;;;;;;23.60;78.74;96316.03;5076529;28;20203;-67
2023/07/21 10:06:03;;;;;;;3.93;3.33;;;;;;;23.57;70.99;96322.81;4952291;28;20878;-66
2023/07/21 10:08:33;;;;;;;3.40;3.20;;;;;;;23.85;68.58;96312.97;5068972;28;20229;-65
2023/07/21 10:11:02;;;;;;;2.83;2.57;;;;;;;23.89;61.96;96307.81;5075072;28;20246;-67
2023/07/21 10:13:33;;;;;;;3.30;3.00;;;;;;;24.21;58.33;96319.00;5080298;28;20241;-66
2023/07/21 10:16:02;;;;;;;3.27;3.07;;;;;;;24.02;56.85;96314.41;5076917;28;20729;-65
2023/07/21 10:18:31;;;;;;;2.93;2.70;;;;;;;24.75;56.97;96300.56;5071161;28;20715;-67
2023/07/21 10:20:59;;;;;;;6.50;3.07;;;;;;;25.08;53.13;96303.25;5074637;28;20225;-66
2023/07/21 10:23:28;;;;;;;4.20;3.33;;;;;;;25.32;51.91;96296.84;5078578;28;20297;-68
2023/07/21 10:25:58;;;;;;;3.00;2.50;;;;;;;25.47;50.63;96303.06;5075971;28;20210;-66
2023/07/21 10:28:32;;;;;;;2.67;2.47;;;;;;;25.78;46.37;96299.72;5072022;28;20754;-68
2023/07/21 10:31:36;;;;;;;2.33;2.20;;;;;;;25.66;48.86;96284.78;5029694;28;20688;-68
2023/07/21 10:34:08;;;;;;;2.77;2.47;;;;;;;25.19;48.11;96284.88;5075905;28;20208;-69
2023/07/21 10:36:45;;;;;;;2.77;2.57;;;;;;;25.43;49.55;96286.59;5074839;28;20227;-66
2023/07/21 10:39:16;;;;;;;3.17;2.53;;;;;;;25.17;46.28;96284.38;5078600;28;20298;-67
2023/07/21 10:41:44;;;;;;;2.40;2.20;;;;;;;24.99;46.13;96284.16;4974090;28;20202;-68
2023/07/21 10:44:12;;;;;;;2.63;2.53;;;;;;;25.13;51.15;96286.09;5071683;28;20313;-67
2023/07/21 10:46:40;;;;;;;2.50;2.40;;;;;;;25.55;49.83;96288.81;5069577;28;20223;-67
2023/07/21 10:49:10;;;;;;;3.07;2.57;;;;;;;26.04;48.95;96288.31;5079053;28;20194;-67
2023/07/21 10:51:38;;;;;;;2.47;2.37;;;;;;;25.51;46.83;96280.47;5069367;28;20223;-68
2023/07/21 10:54:07;;;;;;;2.80;2.63;;;;;;;25.41;47.32;96291.53;5074640;28;20202;-66
2023/07/21 10:56:36;;;;;;;2.73;2.50;;;;;;;25.33;49.24;96281.34;5067544;28;20222;-67
2023/07/21 10:59:04;;;;;;;2.57;2.40;;;;;;;25.36;46.65;96278.84;5076331;28;20648;-68
2023/07/21 11:01:32;;;;;;;2.63;2.40;;;;;;;25.26;46.58;96282.56;5071234;28;20215;-67
2023/07/21 11:04:00;;;;;;;2.37;2.27;;;;;;;25.34;47.78;96277.53;5008407;28;20580;-68
2023/07/21 11:06:29;;;;;;;2.60;2.40;;;;;;;25.53;49.11;96274.75;5066068;28;20316;-68
2023/07/21 11:08:57;;;;;;;2.60;2.40;;;;;;;25.57;47.91;96284.69;5068052;28;20642;-66
2023/07/21 11:11:24;;;;;;;2.57;2.37;;;;;;;25.71;47.74;96267.59;5071516;28;20316;-69
2023/07/21 11:13:53;;;;;;;2.97;2.60;;;;;;;25.84;46.67;96269.47;4977685;28;20288;-66
2023/07/21 11:16:20;;;;;;;5.73;2.63;;;;;;;25.86;45.01;96272.69;5074651;28;20221;-67
2023/07/21 11:18:48;;;;;;;3.93;2.57;;;;;;;25.57;45.68;96264.88;5071522;28;20207;-67
2023/07/21 11:21:16;;;;;;;3.53;2.40;;;;;;;25.30;46.50;96269.22;5072739;28;20218;-68
2023/07/21 11:23:45;;;;;;;2.50;2.33;;;;;;;25.38;44.28;96263.09;5076677;28;20198;-67
2023/07/21 11:26:13;;;;;;;3.37;3.07;;;;;;;25.37;45.01;96256.06;5077220;28;20654;-66
2023/07/21 11:28:43;;;;;;;2.40;2.30;;;;;;;25.52;46.72;96248.72;5070437;28;20896;-66
2023/07/21 11:31:12;;;;;;;2.73;2.53;;;;;;;26.14;46.49;96210.19;5075341;28;20363;-68
2023/07/21 11:33:42;;;;;;;3.90;2.40;;;;;;;26.81;43.19;96253.06;5070625;28;20205;-67
2023/07/21 11:36:14;;;;;;;2.53;2.33;;;;;;;26.54;40.86;96239.34;5064075;28;20204;-66